Time;durP1;ratioP1;P1;durP2;ratioP2;P2;SDS_P1;SDS_P2;PMS_P1;PMS_P2;Temp;Humidity;BMP_temperature;BMP_pressure;BME280_temperature;BME280_humidity;BME280_pressure;Samples;Min_cycle;Max_cycle;Signal;HPM_P1;HPM_P2
2022/10/20 00:00:54;;;;;;;;;20.33;19.67;;;;;-147.17;100.00;-15917.19;5003245;27;51109;-45
2022/10/20 00:03:20;;;;;;;;;18.33;17.33;;;;;-147.17;100.00;-15917.19;5000738;27;52983;-44
2022/10/20 00:05:46;;;;;;;;;19.00;18.00;;;;;-147.17;100.00;-15917.19;5000286;27;50933;-44
2022/10/20 00:08:11;;;;;;;;;22.00;22.00;;;;;-147.17;100.00;-15917.19;4992909;27;51197;-43
2022/10/20 00:10:36;;;;;;;;;21.00;21.00;;;;;-147.17;100.00;-15917.19;5017214;27;52581;-46
2022/10/20 00:13:02;;;;;;;;;20.25;20.25;;;;;-147.17;100.00;-15917.19;5005956;27;51093;-45
2022/10/20 00:15:27;;;;;;;;;22.33;21.67;;;;;-147.17;100.00;-15917.19;5006765;27;51166;-45
2022/10/20 00:17:52;;;;;;;;;20.67;19.67;;;;;-147.17;100.00;-15917.19;5003205;27;51878;-45
2022/10/20 00:20:18;;;;;;;;;24.50;21.75;;;;;-147.17;100.00;-15917.19;4992653;27;51145;-45
2022/10/20 00:22:43;;;;;;;;;19.00;18.00;;;;;-147.17;100.00;-15917.19;4988841;27;51148;-45
2022/10/20 00:25:08;;;;;;;;;21.33;20.33;;;;;-147.17;100.00;-15917.19;5031317;27;51093;-45
2022/10/20 00:27:34;;;;;;;;;18.67;17.33;;;;;-147.17;100.00;-15917.19;4994148;27;53788;-45
2022/10/20 00:29:59;;;;;;;;;20.00;17.33;;;;;-147.17;100.00;-15917.19;4996226;27;51108;-45
2022/10/20 00:32:24;;;;;;;;;18.67;18.00;;;;;-147.17;100.00;-15917.19;5008971;27;51923;-44
2022/10/20 00:34:50;;;;;;;;;17.00;17.00;;;;;-147.17;100.00;-15917.19;5030646;27;56256;-43
2022/10/20 00:37:15;;;;;;;;;18.00;17.00;;;;;-147.17;100.00;-15917.19;5039572;27;51422;-44
2022/10/20 00:39:40;;;;;;;;;20.00;19.67;;;;;-147.17;100.00;-15917.19;5038557;27;52069;-44
2022/10/20 00:42:06;;;;;;;;;17.75;17.75;;;;;-147.17;100.00;-15917.19;5036595;27;61017;-44
2022/10/20 00:44:55;;;;;;;;;19.00;19.00;;;;;-147.17;100.00;-15917.19;5042556;27;51388;-43
2022/10/20 00:47:32;;;;;;;;;17.33;17.00;;;;;-147.17;100.00;-15917.19;5017230;27;51072;-44
2022/10/20 00:50:07;;;;;;;;;19.50;18.75;;;;;-147.17;100.00;-15917.19;5043173;27;52096;-43
2022/10/20 00:52:32;;;;;;;;;18.00;17.67;;;;;-147.17;100.00;-15917.19;5025307;27;53142;-43
2022/10/20 00:55:00;;;;;;;;;19.25;18.25;;;;;-147.17;100.00;-15917.19;5032434;27;51841;-43
2022/10/20 00:57:27;;;;;;;;;18.67;18.67;;;;;-147.17;100.00;-15917.19;5001741;27;51126;-44
2022/10/20 00:59:53;;;;;;;;;21.50;20.75;;;;;-147.17;100.00;-15917.19;4995178;27;51313;-45
2022/10/20 01:02:19;;;;;;;;;22.00;20.00;;;;;-147.17;100.00;-15917.19;4998423;27;51354;-45
2022/10/20 01:04:44;;;;;;;;;16.50;16.25;;;;;-147.17;100.00;-15917.19;5014700;27;51152;-45
2022/10/20 01:07:10;;;;;;;;;17.75;17.50;;;;;-147.17;100.00;-15917.19;4999478;27;52367;-44
2022/10/20 01:09:37;;;;;;;;;17.25;17.25;;;;;-147.17;100.00;-15917.19;5013581;27;52140;-44
2022/10/20 01:12:27;;;;;;;;;18.50;18.50;;;;;-147.17;100.00;-15917.19;5012520;27;53790;-44
2022/10/20 01:15:01;;;;;;;;;21.00;19.25;;;;;-147.17;100.00;-15917.19;5000154;27;51475;-44
2022/10/20 01:17:39;;;;;;;;;19.00;18.75;;;;;-147.17;100.00;-15917.19;5000063;27;51171;-44
2022/10/20 01:20:22;;;;;;;;;19.67;17.67;;;;;-147.17;100.00;-15917.19;5008699;27;51359;-44
2022/10/20 01:23:00;;;;;;;;;18.67;17.67;;;;;-147.17;100.00;-15917.19;5002641;27;51693;-45
2022/10/20 01:25:39;;;;;;;;;21.50;20.00;;;;;-147.17;100.00;-15917.19;4993477;27;51153;-44
2022/10/20 01:28:41;;;;;;;;;22.00;21.00;;;;;-147.17;100.00;-15917.19;4990128;27;51097;-44
2022/10/20 01:31:45;;;;;;;;;19.00;18.00;;;;;-147.17;100.00;-15917.19;5004650;27;51502;-45
2022/10/20 01:34:20;;;;;;;;;19.67;18.00;;;;;-147.17;100.00;-15917.19;4998266;27;53333;-45
2022/10/20 01:36:57;;;;;;;;;17.33;17.33;;;;;-147.17;100.00;-15917.19;5021215;27;53282;-44
2022/10/20 01:39:51;;;;;;;;;18.00;18.00;;;;;-147.17;100.00;-15917.19;5000585;27;51067;-44
2022/10/20 01:42:23;;;;;;;;;20.00;19.25;;;;;-147.17;100.00;-15917.19;5012049;27;51349;-45
2022/10/20 01:44:52;;;;;;;;;22.25;21.25;;;;;-147.17;100.00;-15917.19;4998832;27;52902;-45
2022/10/20 01:47:21;;;;;;;;;19.00;19.00;;;;;-147.17;100.00;-15917.19;5015558;27;51198;-44
2022/10/20 01:49:48;;;;;;;;;20.25;19.75;;;;;-147.17;100.00;-15917.19;5060927;27;51173;-43
2022/10/20 01:52:14;;;;;;;;;20.75;19.75;;;;;-147.17;100.00;-15917.19;5003360;28;52468;-43
2022/10/20 01:54:40;;;;;;;;;16.00;16.00;;;;;-147.17;100.00;-15917.19;4997557;27;55118;-44
2022/10/20 01:57:30;;;;;;;;;17.33;17.00;;;;;-147.17;100.00;-15917.19;5002617;27;51341;-44
2022/10/20 01:59:55;;;;;;;;;19.25;18.00;;;;;-147.17;100.00;-15917.19;5001571;27;51398;-44
2022/10/20 02:02:51;;;;;;;;;19.00;18.25;;;;;-147.17;100.00;-15917.19;5000392;27;51120;-43
2022/10/20 02:05:31;;;;;;;;;17.00;15.00;;;;;-147.17;100.00;-15917.19;4993185;27;52086;-45
2022/10/20 02:08:11;;;;;;;;;17.67;17.67;;;;;-147.17;100.00;-15917.19;5003356;27;51394;-44
2022/10/20 02:10:48;;;;;;;;;16.00;16.00;;;;;-147.17;100.00;-15917.19;4993211;27;51164;-45
2022/10/20 02:13:17;;;;;;;;;16.33;16.33;;;;;-147.17;100.00;-15917.19;5039972;27;51394;-43
2022/10/20 02:15:46;;;;;;;;;15.67;15.33;;;;;-147.17;100.00;-15917.19;5035897;27;52079;-45
2022/10/20 02:18:15;;;;;;;;;13.33;13.33;;;;;-147.17;100.00;-15917.19;5039269;27;51270;-43
2022/10/20 02:20:45;;;;;;;;;14.33;14.33;;;;;-147.17;100.00;-15917.19;5032209;27;52448;-44
2022/10/20 02:23:11;;;;;;;;;15.33;14.33;;;;;-147.17;100.00;-15917.19;5045128;27;51953;-44
2022/10/20 02:25:38;;;;;;;;;14.00;13.00;;;;;-147.17;100.00;-15917.19;5042743;27;51792;-44
2022/10/20 02:28:09;;;;;;;;;14.67;14.00;;;;;-147.17;100.00;-15917.19;5026558;27;51559;-44
2022/10/20 02:30:36;;;;;;;;;14.33;14.00;;;;;-147.17;100.00;-15917.19;4998481;27;51234;-44
2022/10/20 02:33:02;;;;;;;;;14.67;14.33;;;;;-147.17;100.00;-15917.19;4995846;27;51211;-44
2022/10/20 02:35:31;;;;;;;;;13.00;13.00;;;;;-147.17;100.00;-15917.19;5005512;27;51998;-44
2022/10/20 02:37:57;;;;;;;;;13.33;13.00;;;;;-147.17;100.00;-15917.19;4997602;27;51107;-44
2022/10/20 02:40:23;;;;;;;;;12.67;12.00;;;;;-147.17;100.00;-15917.19;5017655;27;51049;-44
2022/10/20 02:42:48;;;;;;;;;15.33;14.00;;;;;-147.17;100.00;-15917.19;5009052;27;51355;-45
2022/10/20 02:45:14;;;;;;;;;12.33;10.67;;;;;-147.17;100.00;-15917.19;5001583;27;52716;-44
2022/10/20 02:47:40;;;;;;;;;11.00;10.33;;;;;-147.17;100.00;-15917.19;5004813;27;51062;-44
2022/10/20 02:50:06;;;;;;;;;6.00;6.00;;;;;-147.17;100.00;-15917.19;5005314;27;51255;-44
2022/10/20 02:52:32;;;;;;;;;10.00;9.00;;;;;-147.17;100.00;-15917.19;5002638;27;51102;-44
2022/10/20 02:54:57;;;;;;;;;11.67;10.67;;;;;-147.17;100.00;-15917.19;5002266;27;51224;-45
2022/10/20 02:57:23;;;;;;;;;8.33;7.33;;;;;-147.17;100.00;-15917.19;4996862;27;51180;-45
2022/10/20 02:59:48;;;;;;;;;8.67;7.67;;;;;-147.17;100.00;-15917.19;5009804;27;51661;-45
2022/10/20 03:02:13;;;;;;;;;10.67;10.00;;;;;-147.17;100.00;-15917.19;4997515;27;53113;-44
2022/10/20 03:04:38;;;;;;;;;9.00;7.33;;;;;-147.17;100.00;-15917.19;4995760;27;51902;-44
2022/10/20 03:07:04;;;;;;;;;11.00;9.33;;;;;-147.17;100.00;-15917.19;5009086;27;51122;-45
2022/10/20 03:09:29;;;;;;;;;10.00;9.33;;;;;-147.17;100.00;-15917.19;5006868;27;51144;-45
2022/10/20 03:11:54;;;;;;;;;7.67;7.00;;;;;-147.17;100.00;-15917.19;5005707;27;51282;-44
2022/10/20 03:14:20;;;;;;;;;7.67;7.00;;;;;-147.17;100.00;-15917.19;5049912;27;52114;-45
2022/10/20 03:16:45;;;;;;;;;5.67;5.00;;;;;-147.17;100.00;-15917.19;4999539;27;51917;-45
2022/10/20 03:19:10;;;;;;;;;7.00;7.00;;;;;-147.17;100.00;-15917.19;4989573;27;51269;-44
2022/10/20 03:21:36;;;;;;;;;9.00;7.67;;;;;-147.17;100.00;-15917.19;5064365;27;51379;-45
2022/10/20 03:24:01;;;;;;;;;6.33;6.00;;;;;-147.17;100.00;-15917.19;5001691;27;51825;-44
2022/10/20 03:26:26;;;;;;;;;7.00;7.00;;;;;-147.17;100.00;-15917.19;5004713;27;52109;-43
2022/10/20 03:28:52;;;;;;;;;6.00;5.00;;;;;-147.17;100.00;-15917.19;5003105;27;51500;-44
2022/10/20 03:31:17;;;;;;;;;8.00;7.33;;;;;-147.17;100.00;-15917.19;4997430;27;51059;-44
2022/10/20 03:33:42;;;;;;;;;7.00;7.00;;;;;-147.17;100.00;-15917.19;5007118;27;52391;-44
2022/10/20 03:36:08;;;;;;;;;7.00;6.67;;;;;-147.17;100.00;-15917.19;4995817;28;51165;-45
2022/10/20 03:38:34;;;;;;;;;7.67;6.00;;;;;-147.17;100.00;-15917.19;5000467;27;50986;-45
2022/10/20 03:40:59;;;;;;;;;8.67;8.33;;;;;-147.17;100.00;-15917.19;5003657;27;51336;-45
2022/10/20 03:43:24;;;;;;;;;9.00;8.00;;;;;-147.17;100.00;-15917.19;4996912;27;51530;-45
2022/10/20 03:45:50;;;;;;;;;7.00;7.00;;;;;-147.17;100.00;-15917.19;5015782;27;51143;-45
2022/10/20 03:48:16;;;;;;;;;9.00;8.00;;;;;-147.17;100.00;-15917.19;5048443;27;51700;-44
2022/10/20 03:50:41;;;;;;;;;10.50;9.50;;;;;-147.17;100.00;-15917.19;5006559;27;51031;-44
2022/10/20 03:53:11;;;;;;;;;9.00;8.67;;;;;-147.17;100.00;-15917.19;4999636;27;53010;-43
2022/10/20 03:55:36;;;;;;;;;12.67;11.33;;;;;-147.17;100.00;-15917.19;5000627;27;51287;-44
2022/10/20 03:58:02;;;;;;;;;8.00;8.00;;;;;-147.17;100.00;-15917.19;5025347;27;51299;-44
2022/10/20 04:00:27;;;;;;;;;11.00;11.00;;;;;-147.17;100.00;-15917.19;5025039;27;51359;-44
2022/10/20 04:02:52;;;;;;;;;12.00;10.00;;;;;-147.17;100.00;-15917.19;4996451;27;51917;-44
2022/10/20 04:05:20;;;;;;;;;10.00;10.00;;;;;-147.17;100.00;-15917.19;5008441;27;51214;-44
2022/10/20 04:07:46;;;;;;;;;9.00;8.33;;;;;-147.17;100.00;-15917.19;5003550;27;51114;-44
2022/10/20 04:10:15;;;;;;;;;10.33;9.67;;;;;-147.17;100.00;-15917.19;5010606;27;51390;-45
2022/10/20 04:12:40;;;;;;;;;9.00;8.00;;;;;-147.17;100.00;-15917.19;5024397;27;52997;-44
2022/10/20 04:15:07;;;;;;;;;11.00;10.00;;;;;-147.17;100.00;-15917.19;4993317;27;50936;-45
2022/10/20 04:17:32;;;;;;;;;9.00;9.00;;;;;-147.17;100.00;-15917.19;5063322;27;51338;-44
2022/10/20 04:19:58;;;;;;;;;8.67;8.67;;;;;-147.17;100.00;-15917.19;5060056;27;51362;-44
2022/10/20 04:22:23;;;;;;;;;11.00;9.00;;;;;-147.17;100.00;-15917.19;5006469;27;51165;-44
2022/10/20 04:24:49;;;;;;;;;9.00;8.33;;;;;-147.17;100.00;-15917.19;5003769;27;51085;-45
2022/10/20 04:27:14;;;;;;;;;13.00;10.00;;;;;-147.17;100.00;-15917.19;5000369;27;53615;-45
2022/10/20 04:29:39;;;;;;;;;9.00;8.00;;;;;-147.17;100.00;-15917.19;4999888;27;51220;-45
2022/10/20 04:32:05;;;;;;;;;12.33;12.33;;;;;-147.17;100.00;-15917.19;5002405;27;52435;-44
2022/10/20 04:34:30;;;;;;;;;10.00;10.00;;;;;-147.17;100.00;-15917.19;4994429;27;51238;-44
2022/10/20 04:36:56;;;;;;;;;10.67;9.67;;;;;-147.17;100.00;-15917.19;4999263;27;53441;-44
2022/10/20 04:39:21;;;;;;;;;9.33;9.00;;;;;-147.17;100.00;-15917.19;5018411;27;51401;-44
2022/10/20 04:41:46;;;;;;;;;11.33;10.00;;;;;-147.17;100.00;-15917.19;5063493;27;60915;-44
2022/10/20 04:44:12;;;;;;;;;14.00;10.67;;;;;-147.17;100.00;-15917.19;4996018;27;56768;-45
2022/10/20 04:46:37;;;;;;;;;9.00;9.00;;;;;-147.17;100.00;-15917.19;4997669;27;51256;-44
2022/10/20 04:49:03;;;;;;;;;14.33;11.00;;;;;-147.17;100.00;-15917.19;5059407;27;51270;-45
2022/10/20 04:51:29;;;;;;;;;12.33;11.00;;;;;-147.17;100.00;-15917.19;5000061;27;51029;-45
2022/10/20 04:53:54;;;;;;;;;11.67;10.33;;;;;-147.17;100.00;-15917.19;4999576;27;51156;-46
2022/10/20 04:56:20;;;;;;;;;11.33;11.00;;;;;-147.17;100.00;-15917.19;4995688;27;51129;-44
2022/10/20 04:58:54;;;;;;;;;11.33;11.00;;;;;-147.17;100.00;-15917.19;5003302;27;51000;-44
2022/10/20 05:01:22;;;;;;;;;11.00;10.33;;;;;-147.17;100.00;-15917.19;4993290;27;51249;-44
2022/10/20 05:03:48;;;;;;;;;12.00;10.00;;;;;-147.17;100.00;-15917.19;5020681;27;52072;-44
2022/10/20 05:06:17;;;;;;;;;12.33;10.33;;;;;-147.17;100.00;-15917.19;5002924;27;51090;-45
2022/10/20 05:08:47;;;;;;;;;10.00;9.00;;;;;-147.17;100.00;-15917.19;5005252;27;51352;-43
2022/10/20 05:11:14;;;;;;;;;12.00;12.00;;;;;-147.17;100.00;-15917.19;5002902;27;52030;-45
2022/10/20 05:13:40;;;;;;;;;15.00;13.33;;;;;-147.17;100.00;-15917.19;5004981;27;51296;-45
2022/10/20 05:16:06;;;;;;;;;13.00;11.00;;;;;-147.17;100.00;-15917.19;5064740;27;51252;-45
2022/10/20 05:18:32;;;;;;;;;12.33;10.67;;;;;-147.17;100.00;-15917.19;5008248;27;51356;-44
2022/10/20 05:20:58;;;;;;;;;11.67;10.00;;;;;-147.17;100.00;-15917.19;5009423;27;51185;-44
2022/10/20 05:23:23;;;;;;;;;12.00;10.00;;;;;-147.17;100.00;-15917.19;5062458;27;51056;-44
2022/10/20 05:25:49;;;;;;;;;10.67;9.67;;;;;-147.17;100.00;-15917.19;5009544;27;51118;-44
2022/10/20 05:28:14;;;;;;;;;11.00;10.67;;;;;-147.17;100.00;-15917.19;5000698;27;51265;-45
2022/10/20 05:30:39;;;;;;;;;14.00;13.00;;;;;-147.17;100.00;-15917.19;5008742;27;52945;-48
2022/10/20 05:33:05;;;;;;;;;11.67;11.33;;;;;-147.17;100.00;-15917.19;5004461;27;51177;-44
2022/10/20 05:35:30;;;;;;;;;13.00;12.67;;;;;-147.17;100.00;-15917.19;5007096;27;51114;-44
2022/10/20 05:37:56;;;;;;;;;9.33;8.33;;;;;-147.17;100.00;-15917.19;5012226;27;51935;-44
2022/10/20 05:40:22;;;;;;;;;13.33;11.67;;;;;-147.17;100.00;-15917.19;4988383;27;51883;-44
2022/10/20 05:42:47;;;;;;;;;9.33;9.00;;;;;-147.17;100.00;-15917.19;4997959;27;51318;-44
2022/10/20 05:45:13;;;;;;;;;9.00;8.33;;;;;-147.17;100.00;-15917.19;5007739;27;51401;-44
2022/10/20 05:47:38;;;;;;;;;10.00;10.00;;;;;-147.17;100.00;-15917.19;5002377;27;51226;-44
2022/10/20 05:50:04;;;;;;;;;11.67;11.00;;;;;-147.17;100.00;-15917.19;4994787;27;51685;-44
2022/10/20 05:52:30;;;;;;;;;11.67;10.00;;;;;-147.17;100.00;-15917.19;5061765;27;52339;-43
2022/10/20 05:54:55;;;;;;;;;7.33;7.33;;;;;-147.17;100.00;-15917.19;5005913;28;51270;-43
2022/10/20 05:57:20;;;;;;;;;10.00;9.33;;;;;-147.17;100.00;-15917.19;5000094;27;51303;-43
2022/10/20 05:59:46;;;;;;;;;13.00;11.33;;;;;-147.17;100.00;-15917.19;4996814;27;51623;-45
2022/10/20 06:02:11;;;;;;;;;7.00;7.00;;;;;-147.17;100.00;-15917.19;5001278;27;51200;-45
2022/10/20 06:04:37;;;;;;;;;6.00;5.33;;;;;-147.17;100.00;-15917.19;5041658;27;51209;-44
2022/10/20 06:07:08;;;;;;;;;8.67;7.33;;;;;-147.17;100.00;-15917.19;4998075;27;50953;-44
2022/10/20 06:09:35;;;;;;;;;6.00;6.00;;;;;-147.17;100.00;-15917.19;5003860;27;52919;-44
2022/10/20 06:12:00;;;;;;;;;7.33;7.00;;;;;-147.17;100.00;-15917.19;5007940;27;51419;-44
2022/10/20 06:14:26;;;;;;;;;8.67;7.33;;;;;-147.17;100.00;-15917.19;5006288;27;52350;-44
2022/10/20 06:16:52;;;;;;;;;5.00;5.00;;;;;-147.17;100.00;-15917.19;5007424;27;51201;-45
2022/10/20 06:19:18;;;;;;;;;8.67;8.67;;;;;-147.17;100.00;-15917.19;5054247;27;52221;-44
2022/10/20 06:21:44;;;;;;;;;7.00;6.00;;;;;-147.17;100.00;-15917.19;5001837;28;51241;-45
2022/10/20 06:24:10;;;;;;;;;6.00;5.33;;;;;-147.17;100.00;-15917.19;5002460;27;51266;-45
2022/10/20 06:26:36;;;;;;;;;7.00;6.33;;;;;-147.17;100.00;-15917.19;4997870;27;51258;-45
2022/10/20 06:29:04;;;;;;;;;6.67;6.00;;;;;-147.17;100.00;-15917.19;5004220;27;51136;-46
2022/10/20 06:31:33;;;;;;;;;8.33;6.67;;;;;-147.17;100.00;-15917.19;5008058;27;51010;-46
2022/10/20 06:33:58;;;;;;;;;7.33;7.00;;;;;-147.17;100.00;-15917.19;5061690;27;51367;-44
2022/10/20 06:36:25;;;;;;;;;9.00;8.00;;;;;-147.17;100.00;-15917.19;5020987;27;51200;-45
2022/10/20 06:38:52;;;;;;;;;8.00;7.00;;;;;-147.17;100.00;-15917.19;5006556;27;51714;-45
2022/10/20 06:41:18;;;;;;;;;8.67;8.00;;;;;-147.17;100.00;-15917.19;5057830;27;51106;-44
2022/10/20 06:43:43;;;;;;;;;9.00;9.00;;;;;-147.17;100.00;-15917.19;5017974;27;51108;-44
2022/10/20 06:46:15;;;;;;;;;9.00;8.00;;;;;-147.17;100.00;-15917.19;5002937;27;51391;-44
2022/10/20 06:48:40;;;;;;;;;8.67;8.00;;;;;-147.17;100.00;-15917.19;5013944;27;52106;-45
2022/10/20 06:51:10;;;;;;;;;11.00;10.00;;;;;-147.17;100.00;-15917.19;4996046;27;51135;-45
2022/10/20 06:53:36;;;;;;;;;9.67;9.67;;;;;-147.17;100.00;-15917.19;5010763;27;52248;-45
2022/10/20 06:56:05;;;;;;;;;15.67;13.33;;;;;-147.17;100.00;-15917.19;5027249;27;52718;-44
2022/10/20 06:58:32;;;;;;;;;11.67;11.33;;;;;-147.17;100.00;-15917.19;5029866;27;52169;-44
2022/10/20 07:01:10;;;;;;;;;12.00;11.00;;;;;-147.17;100.00;-15917.19;5035838;27;51939;-44
2022/10/20 07:03:36;;;;;;;;;11.67;11.00;;;;;-147.17;100.00;-15917.19;4999602;27;51027;-44
2022/10/20 07:06:03;;;;;;;;;14.00;13.67;;;;;-147.17;100.00;-15917.19;5002217;27;51260;-44
2022/10/20 07:08:31;;;;;;;;;12.33;11.00;;;;;-147.17;100.00;-15917.19;5067332;27;51207;-45
2022/10/20 07:11:08;;;;;;;;;12.67;10.00;;;;;-147.17;100.00;-15917.19;4996125;27;51046;-45
2022/10/20 07:13:36;;;;;;;;;16.33;15.33;;;;;-147.17;100.00;-15917.19;5006913;27;51144;-46
2022/10/20 07:16:04;;;;;;;;;10.33;9.67;;;;;-147.17;100.00;-15917.19;5008816;28;51483;-45
2022/10/20 07:18:30;;;;;;;;;9.33;8.67;;;;;-147.17;100.00;-15917.19;4995210;27;52375;-45
2022/10/20 07:20:57;;;;;;;;;7.00;6.33;;;;;-147.17;100.00;-15917.19;5008812;27;51019;-45
2022/10/20 07:23:24;;;;;;;;;8.00;7.00;;;;;-147.17;100.00;-15917.19;5002433;27;51066;-45
2022/10/20 07:25:50;;;;;;;;;7.00;5.00;;;;;-147.17;100.00;-15917.19;5002813;28;51247;-45
2022/10/20 07:28:15;;;;;;;;;8.00;8.00;;;;;-147.17;100.00;-15917.19;4989657;28;51069;-45
2022/10/20 07:30:41;;;;;;;;;8.33;7.67;;;;;-147.17;100.00;-15917.19;5000957;28;51036;-48
2022/10/20 07:33:08;;;;;;;;;7.00;7.00;;;;;-147.17;100.00;-15917.19;5008796;27;51148;-48
2022/10/20 07:35:33;;;;;;;;;9.00;9.00;;;;;-147.17;100.00;-15917.19;4995238;27;51350;-50
2022/10/20 07:37:59;;;;;;;;;7.67;7.33;;;;;-147.17;100.00;-15917.19;4995013;27;51797;-49
2022/10/20 07:40:24;;;;;;;;;9.33;9.00;;;;;-147.17;100.00;-15917.19;5003868;27;51074;-59
2022/10/20 07:42:50;;;;;;;;;10.00;8.33;;;;;-147.17;100.00;-15917.19;4991095;27;51893;-59
2022/10/20 07:45:15;;;;;;;;;8.33;8.33;;;;;-147.17;100.00;-15917.19;5067960;27;51432;-61
2022/10/20 07:47:40;;;;;;;;;8.67;8.00;;;;;-147.17;100.00;-15917.19;5004220;27;54299;-62
2022/10/20 07:50:06;;;;;;;;;5.67;5.33;;;;;-147.17;100.00;-15917.19;5001614;27;55037;-59
2022/10/20 07:52:32;;;;;;;;;8.33;7.67;;;;;-147.17;100.00;-15917.19;4995687;27;51233;-61
2022/10/20 07:54:57;;;;;;;;;10.67;8.00;;;;;-147.17;100.00;-15917.19;4997590;27;50905;-59
2022/10/20 07:57:23;;;;;;;;;5.33;4.67;;;;;-147.17;100.00;-15917.19;5000087;27;51963;-59
2022/10/20 07:59:48;;;;;;;;;7.33;6.33;;;;;-147.17;100.00;-15917.19;5004168;27;51050;-59
2022/10/20 08:02:14;;;;;;;;;8.67;7.00;;;;;-147.17;100.00;-15917.19;5055720;27;51297;-60
2022/10/20 08:04:42;;;;;;;;;8.67;8.00;;;;;-147.17;100.00;-15917.19;4996765;27;51105;-61
2022/10/20 08:07:11;;;;;;;;;9.33;8.67;;;;;-147.17;100.00;-15917.19;4997713;28;51228;-43
2022/10/20 08:09:36;;;;;;;;;9.33;9.33;;;;;-147.17;100.00;-15917.19;5002023;27;51045;-43
2022/10/20 08:12:03;;;;;;;;;8.00;7.67;;;;;-147.17;100.00;-15917.19;4999498;28;51225;-43
2022/10/20 08:14:33;;;;;;;;;6.33;6.00;;;;;-147.17;100.00;-15917.19;5004422;27;51018;-45
2022/10/20 08:17:00;;;;;;;;;9.33;9.00;;;;;-147.17;100.00;-15917.19;4998531;27;51149;-44
2022/10/20 08:19:26;;;;;;;;;7.00;7.00;;;;;-147.17;100.00;-15917.19;5004746;27;51269;-44
2022/10/20 08:21:51;;;;;;;;;6.00;6.00;;;;;-147.17;100.00;-15917.19;4999141;27;51057;-44
2022/10/20 08:24:17;;;;;;;;;7.67;7.67;;;;;-147.17;100.00;-15917.19;5005247;28;51117;-44
2022/10/20 08:26:42;;;;;;;;;9.33;9.33;;;;;-147.17;100.00;-15917.19;5001761;27;51991;-45
2022/10/20 08:29:08;;;;;;;;;5.33;5.33;;;;;-147.17;100.00;-15917.19;4993729;27;51150;-44
2022/10/20 08:31:34;;;;;;;;;6.00;6.00;;;;;-147.17;100.00;-15917.19;4996993;27;50915;-43
2022/10/20 08:33:59;;;;;;;;;6.33;6.00;;;;;-147.17;100.00;-15917.19;5000830;27;51064;-47
2022/10/20 08:36:26;;;;;;;;;4.67;4.67;;;;;-147.17;100.00;-15917.19;4994629;28;51911;-44
2022/10/20 08:38:53;;;;;;;;;7.00;6.67;;;;;-147.17;100.00;-15917.19;4998092;27;51098;-44
2022/10/20 08:41:26;;;;;;;;;7.33;7.00;;;;;-147.17;100.00;-15917.19;5072975;27;51084;-45
2022/10/20 08:43:54;;;;;;;;;5.33;4.33;;;;;-147.17;100.00;-15917.19;5003635;27;51164;-44
2022/10/20 08:46:28;;;;;;;;;5.33;4.33;;;;;-147.17;100.00;-15917.19;5071587;27;52001;-44
2022/10/20 08:48:53;;;;;;;;;5.00;4.00;;;;;-147.17;100.00;-15917.19;4997321;28;51078;-44
2022/10/20 08:51:22;;;;;;;;;7.67;6.33;;;;;-147.17;100.00;-15917.19;5005386;27;51151;-44
2022/10/20 08:53:52;;;;;;;;;6.00;4.00;;;;;-147.17;100.00;-15917.19;5011898;27;50951;-43
2022/10/20 08:56:22;;;;;;;;;5.00;4.33;;;;;-147.17;100.00;-15917.19;5002114;27;51857;-44
2022/10/20 08:58:48;;;;;;;;;5.33;5.33;;;;;-147.17;100.00;-15917.19;5002305;28;51133;-43
2022/10/20 09:01:31;;;;;;;;;5.00;5.00;;;;;-147.17;100.00;-15917.19;5074630;27;51088;-44
2022/10/20 09:04:03;;;;;;;;;5.00;5.00;;;;;-147.17;100.00;-15917.19;5001721;27;50874;-43
2022/10/20 09:06:29;;;;;;;;;7.00;5.67;;;;;-147.17;100.00;-15917.19;5071633;27;51776;-43
2022/10/20 09:08:56;;;;;;;;;8.00;7.00;;;;;-147.17;100.00;-15917.19;5070584;27;51125;-44
2022/10/20 09:11:35;;;;;;;;;5.33;5.33;;;;;-147.17;100.00;-15917.19;4997753;27;51016;-44
2022/10/20 09:14:01;;;;;;;;;6.00;6.00;;;;;-147.17;100.00;-15917.19;5010698;28;50990;-45
2022/10/20 09:16:36;;;;;;;;;6.00;5.00;;;;;-147.17;100.00;-15917.19;5004069;27;51148;-43
2022/10/20 09:19:04;;;;;;;;;6.67;6.67;;;;;-147.17;100.00;-15917.19;5004221;27;51102;-44
2022/10/20 09:21:34;;;;;;;;;6.33;6.00;;;;;-147.17;100.00;-14181.31;4999165;27;51073;-44
2022/10/20 09:24:02;;;;;;;;;5.00;5.00;;;;;-147.17;100.00;-1769.84;5006817;28;51195;-44
2022/10/20 09:26:54;;;;;;;;;6.67;6.00;;;;;-147.17;100.00;25426.38;4994290;28;52767;-44
2022/10/20 09:29:21;;;;;;;;;5.00;5.00;;;;;-147.17;100.00;61941.97;5005226;27;51066;-44
2022/10/20 09:31:53;;;;;;;;;4.67;4.33;;;;;-147.17;100.00;76719.44;5004237;28;51324;-44
2022/10/20 09:34:23;;;;;;;;;6.67;5.67;;;;;-147.17;100.00;68547.59;5005132;27;51343;-44
2022/10/20 09:36:52;;;;;;;;;5.00;4.67;;;;;-147.17;100.00;67543.09;5001261;27;51887;-44
2022/10/20 09:39:23;;;;;;;;;4.00;2.33;;;;;-147.17;100.00;57855.25;5004465;27;51150;-43
2022/10/20 09:41:57;;;;;;;;;9.67;9.67;;;;;-147.17;100.00;45504.34;5008132;27;51278;-43
2022/10/20 09:44:24;;;;;;;;;3.00;3.00;;;;;-147.17;100.00;23169.66;5065277;27;51279;-45
2022/10/20 09:46:52;;;;;;;;;3.00;3.00;;;;;-147.17;100.00;-15917.19;5074562;27;52877;-45
2022/10/20 09:49:36;;;;;;;;;2.00;2.00;;;;;-147.17;100.00;-15917.19;5009333;27;50952;-45
2022/10/20 09:52:14;;;;;;;;;1.67;1.67;;;;;-147.17;100.00;-15917.19;5072123;27;51064;-44
2022/10/20 09:54:39;;;;;;;;;5.00;4.00;;;;;-147.17;100.00;-15917.19;5005627;27;51011;-45
2022/10/20 09:57:13;;;;;;;;;3.00;3.00;;;;;-147.17;100.00;-15917.19;5002920;28;51153;-44
2022/10/20 09:59:44;;;;;;;;;4.00;3.00;;;;;-147.17;100.00;-15917.19;5000571;28;51041;-45
2022/10/20 10:02:12;;;;;;;;;3.00;3.00;;;;;-147.17;100.00;-15917.19;5003630;28;51138;-45
2022/10/20 10:04:43;;;;;;;;;1.67;1.67;;;;;-147.17;100.00;-15917.19;5003812;27;51348;-45
2022/10/20 10:07:35;;;;;;;;;2.00;2.00;;;;;-147.17;100.00;-15917.19;4999119;27;52253;-45
2022/10/20 10:10:04;;;;;;;;;2.67;2.67;;;;;-147.17;100.00;-15917.19;5007462;27;51103;-45
2022/10/20 10:12:31;;;;;;;;;2.00;2.00;;;;;-147.17;100.00;-15917.19;5003302;27;51206;-44
2022/10/20 10:14:59;;;;;;;;;1.00;1.00;;;;;-147.17;100.00;-15917.19;5006440;27;51437;-44
2022/10/20 10:17:34;;;;;;;;;3.00;2.00;;;;;-147.17;100.00;-15917.19;5008070;27;52267;-44
2022/10/20 10:20:24;;;;;;;;;2.00;1.33;;;;;-147.17;100.00;-15917.19;4998394;28;51174;-44
2022/10/20 10:22:50;;;;;;;;;2.00;2.00;;;;;-147.17;100.00;-15917.19;5005041;27;51255;-44
2022/10/20 10:25:21;;;;;;;;;2.00;2.00;;;;;-147.17;100.00;-15917.19;5005518;27;51200;-44
2022/10/20 10:27:56;;;;;;;;;4.00;3.00;;;;;-147.17;100.00;-15917.19;5000066;27;51076;-45
2022/10/20 10:30:29;;;;;;;;;5.00;4.33;;;;;-147.17;100.00;-15917.19;4995481;28;51125;-44
2022/10/20 10:32:55;;;;;;;;;4.00;3.33;;;;;-147.17;100.00;-15917.19;5003243;27;50887;-43
2022/10/20 10:35:25;;;;;;;;;4.67;3.67;;;;;-147.17;100.00;-15917.19;5006596;27;51268;-44
2022/10/20 10:37:51;;;;;;;;;5.00;4.67;;;;;-147.17;100.00;-15917.19;4991251;27;51746;-44
2022/10/20 10:40:21;;;;;;;;;5.00;5.00;;;;;-147.17;100.00;-15917.19;4994974;27;51039;-45
2022/10/20 10:42:55;;;;;;;;;4.00;4.00;;;;;-147.17;100.00;-15917.19;5007099;27;52247;-43
2022/10/20 10:45:31;;;;;;;;;3.33;3.00;;;;;-147.17;100.00;-15917.19;5004698;27;51181;-44
2022/10/20 10:48:25;;;;;;;;;4.00;4.00;;;;;-147.17;100.00;-15917.19;5074695;27;51822;-46
2022/10/20 10:51:05;;;;;;;;;6.00;5.00;;;;;-147.17;100.00;-15917.19;5016292;27;51057;-45
2022/10/20 10:53:31;;;;;;;;;4.00;4.00;;;;;-147.17;100.00;-15917.19;5009813;27;51220;-43
2022/10/20 10:56:07;;;;;;;;;2.33;2.33;;;;;-147.17;100.00;-12341.53;5009654;28;51006;-45
2022/10/20 10:58:32;;;;;;;;;4.33;4.00;;;;;-147.17;100.00;-12835.47;5004903;28;51918;-44
2022/10/20 11:01:04;;;;;;;;;6.33;5.00;;;;;-147.17;100.00;-13275.09;5074169;27;51146;-44